sensor_id;sensor_type;location;lat;lon;timestamp;P1;P2;P0
77974;PMS5003;67164;51.202;0.278;2023-04-01T00:00:22;2;2;
77974;PMS5003;67164;51.202;0.278;2023-04-01T00:02:47;3;3;
77974;PMS5003;67164;51.202;0.278;2023-04-01T00:05:13;2;2;
77974;PMS5003;67164;51.202;0.278;2023-04-01T00:07:39;5;5;
77974;PMS5003;67164;51.202;0.278;2023-04-01T00:10:06;4;4;
77974;PMS5003;67164;51.202;0.278;2023-04-01T00:12:31;4;4;
77974;PMS5003;67164;51.202;0.278;2023-04-01T00:14:56;6;4;
77974;PMS5003;67164;51.202;0.278;2023-04-01T00:17:22;4;4;
77974;PMS5003;67164;51.202;0.278;2023-04-01T00:19:48;4;4;
77974;PMS5003;67164;51.202;0.278;2023-04-01T00:22:14;3;3;
77974;PMS5003;67164;51.202;0.278;2023-04-01T00:24:40;4;4;
77974;PMS5003;67164;51.202;0.278;2023-04-01T00:27:05;3;3;
77974;PMS5003;67164;51.202;0.278;2023-04-01T00:29:31;3;3;
77974;PMS5003;67164;51.202;0.278;2023-04-01T00:31:57;4;4;
77974;PMS5003;67164;51.202;0.278;2023-04-01T00:34:23;4;4;
77974;PMS5003;67164;51.202;0.278;2023-04-01T00:36:49;4;4;
77974;PMS5003;67164;51.202;0.278;2023-04-01T00:39:14;3;3;
77974;PMS5003;67164;51.202;0.278;2023-04-01T00:41:40;3;2;
77974;PMS5003;67164;51.202;0.278;2023-04-01T00:44:14;4;4;
77974;PMS5003;67164;51.202;0.278;2023-04-01T00:46:32;4;4;
77974;PMS5003;67164;51.202;0.278;2023-04-01T00:48:58;4;4;
77974;PMS5003;67164;51.202;0.278;2023-04-01T00:51:25;2;2;
77974;PMS5003;67164;51.202;0.278;2023-04-01T00:53:50;3;3;
77974;PMS5003;67164;51.202;0.278;2023-04-01T00:56:16;5;3;
77974;PMS5003;67164;51.202;0.278;2023-04-01T00:58:42;4;4;
77974;PMS5003;67164;51.202;0.278;2023-04-01T01:01:07;4;2;
77974;PMS5003;67164;51.202;0.278;2023-04-01T01:03:33;4;4;
77974;PMS5003;67164;51.202;0.278;2023-04-01T01:06:04;5;5;
77974;PMS5003;67164;51.202;0.278;2023-04-01T01:08:26;3;3;
77974;PMS5003;67164;51.202;0.278;2023-04-01T01:10:50;5;4;
77974;PMS5003;67164;51.202;0.278;2023-04-01T01:13:17;6;6;
77974;PMS5003;67164;51.202;0.278;2023-04-01T01:15:44;4;4;
77974;PMS5003;67164;51.202;0.278;2023-04-01T01:18:09;5;5;
77974;PMS5003;67164;51.202;0.278;2023-04-01T01:20:44;6;4;
77974;PMS5003;67164;51.202;0.278;2023-04-01T01:25:30;3;3;
77974;PMS5003;67164;51.202;0.278;2023-04-01T01:27:54;5;5;
77974;PMS5003;67164;51.202;0.278;2023-04-01T01:30:22;2;2;
77974;PMS5003;67164;51.202;0.278;2023-04-01T01:32:49;4;4;
77974;PMS5003;67164;51.202;0.278;2023-04-01T01:35:13;3;3;
77974;PMS5003;67164;51.202;0.278;2023-04-01T01:37:34;3;3;
77974;PMS5003;67164;51.202;0.278;2023-04-01T01:40:00;5;5;
77974;PMS5003;67164;51.202;0.278;2023-04-01T01:42:26;5;5;
77974;PMS5003;67164;51.202;0.278;2023-04-01T01:44:52;3;3;
77974;PMS5003;67164;51.202;0.278;2023-04-01T01:47:17;5;5;
77974;PMS5003;67164;51.202;0.278;2023-04-01T01:49:43;3;3;
77974;PMS5003;67164;51.202;0.278;2023-04-01T01:52:09;4;4;
77974;PMS5003;67164;51.202;0.278;2023-04-01T01:54:35;4;4;
77974;PMS5003;67164;51.202;0.278;2023-04-01T01:57:03;4;4;
77974;PMS5003;67164;51.202;0.278;2023-04-01T01:59:26;3;3;
77974;PMS5003;67164;51.202;0.278;2023-04-01T02:01:53;3;3;
77974;PMS5003;67164;51.202;0.278;2023-04-01T02:04:18;4;4;
77974;PMS5003;67164;51.202;0.278;2023-04-01T02:06:45;3;3;
77974;PMS5003;67164;51.202;0.278;2023-04-01T02:09:10;4;4;
77974;PMS5003;67164;51.202;0.278;2023-04-01T02:11:36;3;3;
77974;PMS5003;67164;51.202;0.278;2023-04-01T02:14:02;3;3;
77974;PMS5003;67164;51.202;0.278;2023-04-01T02:16:28;5;5;
77974;PMS5003;67164;51.202;0.278;2023-04-01T02:18:53;2;2;
77974;PMS5003;67164;51.202;0.278;2023-04-01T02:21:19;3;3;
77974;PMS5003;67164;51.202;0.278;2023-04-01T02:23:44;3;3;
77974;PMS5003;67164;51.202;0.278;2023-04-01T02:26:10;3;3;
77974;PMS5003;67164;51.202;0.278;2023-04-01T02:28:36;4;4;
77974;PMS5003;67164;51.202;0.278;2023-04-01T02:31:02;4;4;
77974;PMS5003;67164;51.202;0.278;2023-04-01T02:33:28;4;4;
77974;PMS5003;67164;51.202;0.278;2023-04-01T02:35:54;5;4;
77974;PMS5003;67164;51.202;0.278;2023-04-01T02:38:19;3;3;
77974;PMS5003;67164;51.202;0.278;2023-04-01T02:40:46;5;5;
77974;PMS5003;67164;51.202;0.278;2023-04-01T02:43:11;4;4;
77974;PMS5003;67164;51.202;0.278;2023-04-01T02:45:37;5;5;
77974;PMS5003;67164;51.202;0.278;2023-04-01T02:48:03;4;4;
77974;PMS5003;67164;51.202;0.278;2023-04-01T02:50:28;4;4;
77974;PMS5003;67164;51.202;0.278;2023-04-01T02:52:54;5;4;
77974;PMS5003;67164;51.202;0.278;2023-04-01T02:55:20;3;3;
77974;PMS5003;67164;51.202;0.278;2023-04-01T02:57:46;3;3;
77974;PMS5003;67164;51.202;0.278;2023-04-01T03:00:12;3;3;
77974;PMS5003;67164;51.202;0.278;2023-04-01T03:02:38;3;3;
77974;PMS5003;67164;51.202;0.278;2023-04-01T03:05:04;3;3;
77974;PMS5003;67164;51.202;0.278;2023-04-01T03:07:29;3;3;
77974;PMS5003;67164;51.202;0.278;2023-04-01T03:09:55;1;1;
77974;PMS5003;67164;51.202;0.278;2023-04-01T03:12:21;2;2;
77974;PMS5003;67164;51.202;0.278;2023-04-01T03:14:47;2;2;
77974;PMS5003;67164;51.202;0.278;2023-04-01T03:17:12;4;4;
77974;PMS5003;67164;51.202;0.278;2023-04-01T03:19:39;3;3;
77974;PMS5003;67164;51.202;0.278;2023-04-01T03:22:04;3;3;
77974;PMS5003;67164;51.202;0.278;2023-04-01T03:24:30;2;2;
77974;PMS5003;67164;51.202;0.278;2023-04-01T03:26:56;3;2;
77974;PMS5003;67164;51.202;0.278;2023-04-01T03:29:22;2;2;
77974;PMS5003;67164;51.202;0.278;2023-04-01T03:31:47;4;2;
77974;PMS5003;67164;51.202;0.278;2023-04-01T03:34:13;4;4;
77974;PMS5003;67164;51.202;0.278;2023-04-01T03:36:39;1;1;
77974;PMS5003;67164;51.202;0.278;2023-04-01T03:39:05;3;3;
77974;PMS5003;67164;51.202;0.278;2023-04-01T03:41:31;2;2;
77974;PMS5003;67164;51.202;0.278;2023-04-01T03:43:56;2;2;
77974;PMS5003;67164;51.202;0.278;2023-04-01T03:46:22;2;0;
77974;PMS5003;67164;51.202;0.278;2023-04-01T03:48:48;2;2;
77974;PMS5003;67164;51.202;0.278;2023-04-01T03:51:14;2;2;
77974;PMS5003;67164;51.202;0.278;2023-04-01T03:53:40;2;1;
77974;PMS5003;67164;51.202;0.278;2023-04-01T03:56:06;3;2;
77974;PMS5003;67164;51.202;0.278;2023-04-01T03:58:31;1;1;
77974;PMS5003;67164;51.202;0.278;2023-04-01T04:00:57;2;2;
77974;PMS5003;67164;51.202;0.278;2023-04-01T04:03:23;3;3;
77974;PMS5003;67164;51.202;0.278;2023-04-01T04:05:49;3;2;
77974;PMS5003;67164;51.202;0.278;2023-04-01T04:08:15;2;2;
77974;PMS5003;67164;51.202;0.278;2023-04-01T04:10:40;1;1;
77974;PMS5003;67164;51.202;0.278;2023-04-01T04:13:06;1;1;
77974;PMS5003;67164;51.202;0.278;2023-04-01T04:15:32;2;2;
77974;PMS5003;67164;51.202;0.278;2023-04-01T04:17:58;3;3;
77974;PMS5003;67164;51.202;0.278;2023-04-01T04:20:24;1;1;
77974;PMS5003;67164;51.202;0.278;2023-04-01T04:22:49;1;1;
77974;PMS5003;67164;51.202;0.278;2023-04-01T04:25:15;2;2;
77974;PMS5003;67164;51.202;0.278;2023-04-01T04:27:41;3;3;
77974;PMS5003;67164;51.202;0.278;2023-04-01T04:30:07;1;1;
77974;PMS5003;67164;51.202;0.278;2023-04-01T04:32:33;2;2;
77974;PMS5003;67164;51.202;0.278;2023-04-01T04:34:59;1;1;
77974;PMS5003;67164;51.202;0.278;2023-04-01T04:37:25;1;1;
77974;PMS5003;67164;51.202;0.278;2023-04-01T04:39:50;2;2;
77974;PMS5003;67164;51.202;0.278;2023-04-01T04:42:16;0;0;
77974;PMS5003;67164;51.202;0.278;2023-04-01T04:44:42;2;2;
77974;PMS5003;67164;51.202;0.278;2023-04-01T04:47:08;1;1;
77974;PMS5003;67164;51.202;0.278;2023-04-01T04:49:33;1;1;
77974;PMS5003;67164;51.202;0.278;2023-04-01T04:51:59;2;2;
77974;PMS5003;67164;51.202;0.278;2023-04-01T04:54:25;1;1;
77974;PMS5003;67164;51.202;0.278;2023-04-01T04:56:51;1;1;
77974;PMS5003;67164;51.202;0.278;2023-04-01T04:59:17;3;1;
77974;PMS5003;67164;51.202;0.278;2023-04-01T05:01:42;0;0;
77974;PMS5003;67164;51.202;0.278;2023-04-01T05:04:08;0;0;
77974;PMS5003;67164;51.202;0.278;2023-04-01T05:06:34;0;0;
77974;PMS5003;67164;51.202;0.278;2023-04-01T05:09:00;1;1;
77974;PMS5003;67164;51.202;0.278;2023-04-01T05:11:26;1;1;
77974;PMS5003;67164;51.202;0.278;2023-04-01T05:13:52;2;2;
77974;PMS5003;67164;51.202;0.278;2023-04-01T05:16:18;2;2;
77974;PMS5003;67164;51.202;0.278;2023-04-01T05:18:43;2;2;
77974;PMS5003;67164;51.202;0.278;2023-04-01T05:21:10;2;1;
77974;PMS5003;67164;51.202;0.278;2023-04-01T05:23:35;1;1;
77974;PMS5003;67164;51.202;0.278;2023-04-01T05:26:02;3;1;
77974;PMS5003;67164;51.202;0.278;2023-04-01T05:28:26;1;1;
77974;PMS5003;67164;51.202;0.278;2023-04-01T05:30:52;2;1;
77974;PMS5003;67164;51.202;0.278;2023-04-01T05:33:18;2;2;
77974;PMS5003;67164;51.202;0.278;2023-04-01T05:35:44;1;1;
77974;PMS5003;67164;51.202;0.278;2023-04-01T05:38:10;1;1;
77974;PMS5003;67164;51.202;0.278;2023-04-01T05:40:36;1;1;
77974;PMS5003;67164;51.202;0.278;2023-04-01T05:43:02;1;1;
77974;PMS5003;67164;51.202;0.278;2023-04-01T05:45:27;2;2;
77974;PMS5003;67164;51.202;0.278;2023-04-01T05:47:53;2;2;
77974;PMS5003;67164;51.202;0.278;2023-04-01T05:50:19;1;1;
77974;PMS5003;67164;51.202;0.278;2023-04-01T05:52:45;0;0;
77974;PMS5003;67164;51.202;0.278;2023-04-01T05:55:11;1;1;
77974;PMS5003;67164;51.202;0.278;2023-04-01T05:57:36;1;1;
77974;PMS5003;67164;51.202;0.278;2023-04-01T06:00:03;0;0;
77974;PMS5003;67164;51.202;0.278;2023-04-01T06:02:28;2;2;
77974;PMS5003;67164;51.202;0.278;2023-04-01T06:04:54;0;0;
77974;PMS5003;67164;51.202;0.278;2023-04-01T06:07:20;1;1;
77974;PMS5003;67164;51.202;0.278;2023-04-01T06:09:46;1;1;
77974;PMS5003;67164;51.202;0.278;2023-04-01T06:12:17;1;1;
77974;PMS5003;67164;51.202;0.278;2023-04-01T06:14:38;1;1;
77974;PMS5003;67164;51.202;0.278;2023-04-01T06:17:08;0;0;
77974;PMS5003;67164;51.202;0.278;2023-04-01T06:19:32;1;1;
77974;PMS5003;67164;51.202;0.278;2023-04-01T06:22:02;3;1;
77974;PMS5003;67164;51.202;0.278;2023-04-01T06:24:25;0;0;
77974;PMS5003;67164;51.202;0.278;2023-04-01T06:26:47;2;2;
77974;PMS5003;67164;51.202;0.278;2023-04-01T06:29:19;2;2;
77974;PMS5003;67164;51.202;0.278;2023-04-01T06:31:42;1;1;
77974;PMS5003;67164;51.202;0.278;2023-04-01T06:34:08;3;1;
77974;PMS5003;67164;51.202;0.278;2023-04-01T06:36:39;3;0;
77974;PMS5003;67164;51.202;0.278;2023-04-01T06:38:58;3;3;
77974;PMS5003;67164;51.202;0.278;2023-04-01T06:41:28;0;0;
77974;PMS5003;67164;51.202;0.278;2023-04-01T06:43:49;1;1;
77974;PMS5003;67164;51.202;0.278;2023-04-01T06:46:15;2;2;
77974;PMS5003;67164;51.202;0.278;2023-04-01T06:48:42;4;3;
77974;PMS5003;67164;51.202;0.278;2023-04-01T06:51:07;3;3;
77974;PMS5003;67164;51.202;0.278;2023-04-01T06:53:31;4;3;
77974;PMS5003;67164;51.202;0.278;2023-04-01T06:55:57;3;3;
77974;PMS5003;67164;51.202;0.278;2023-04-01T06:58:22;3;3;
77974;PMS5003;67164;51.202;0.278;2023-04-01T07:00:48;4;2;
77974;PMS5003;67164;51.202;0.278;2023-04-01T07:03:15;2;2;
77974;PMS5003;67164;51.202;0.278;2023-04-01T07:05:39;2;2;
77974;PMS5003;67164;51.202;0.278;2023-04-01T07:08:05;2;2;
77974;PMS5003;67164;51.202;0.278;2023-04-01T07:10:32;4;4;
77974;PMS5003;67164;51.202;0.278;2023-04-01T07:12:56;2;2;
77974;PMS5003;67164;51.202;0.278;2023-04-01T07:15:23;2;2;
77974;PMS5003;67164;51.202;0.278;2023-04-01T07:17:50;2;2;
77974;PMS5003;67164;51.202;0.278;2023-04-01T07:20:15;2;2;
77974;PMS5003;67164;51.202;0.278;2023-04-01T07:22:40;2;2;
77974;PMS5003;67164;51.202;0.278;2023-04-01T07:25:08;2;2;
77974;PMS5003;67164;51.202;0.278;2023-04-01T07:27:31;2;2;
77974;PMS5003;67164;51.202;0.278;2023-04-01T07:29:57;1;1;
77974;PMS5003;67164;51.202;0.278;2023-04-01T07:32:26;1;1;
77974;PMS5003;67164;51.202;0.278;2023-04-01T07:34:51;0;0;
77974;PMS5003;67164;51.202;0.278;2023-04-01T07:37:15;1;1;
77974;PMS5003;67164;51.202;0.278;2023-04-01T07:39:43;1;1;
77974;PMS5003;67164;51.202;0.278;2023-04-01T07:42:08;4;2;
77974;PMS5003;67164;51.202;0.278;2023-04-01T07:44:34;1;1;
77974;PMS5003;67164;51.202;0.278;2023-04-01T07:47:12;1;1;
77974;PMS5003;67164;51.202;0.278;2023-04-01T07:49:29;1;1;
77974;PMS5003;67164;51.202;0.278;2023-04-01T07:51:52;2;2;
77974;PMS5003;67164;51.202;0.278;2023-04-01T07:54:17;3;1;
77974;PMS5003;67164;51.202;0.278;2023-04-01T07:56:42;1;1;
77974;PMS5003;67164;51.202;0.278;2023-04-01T07:59:08;1;1;
77974;PMS5003;67164;51.202;0.278;2023-04-01T08:01:33;2;2;
77974;PMS5003;67164;51.202;0.278;2023-04-01T08:04:04;1;1;
77974;PMS5003;67164;51.202;0.278;2023-04-01T08:06:24;2;2;
77974;PMS5003;67164;51.202;0.278;2023-04-01T08:08:53;2;2;
77974;PMS5003;67164;51.202;0.278;2023-04-01T08:11:20;2;2;
77974;PMS5003;67164;51.202;0.278;2023-04-01T08:13:43;2;2;
77974;PMS5003;67164;51.202;0.278;2023-04-01T08:16:09;2;2;
77974;PMS5003;67164;51.202;0.278;2023-04-01T08:18:35;2;2;
77974;PMS5003;67164;51.202;0.278;2023-04-01T08:20:59;1;1;
77974;PMS5003;67164;51.202;0.278;2023-04-01T08:23:26;0;0;
77974;PMS5003;67164;51.202;0.278;2023-04-01T08:25:51;2;2;
77974;PMS5003;67164;51.202;0.278;2023-04-01T08:28:17;2;1;
77974;PMS5003;67164;51.202;0.278;2023-04-01T08:30:43;1;1;
77974;PMS5003;67164;51.202;0.278;2023-04-01T08:33:10;1;1;
77974;PMS5003;67164;51.202;0.278;2023-04-01T08:35:37;1;1;
77974;PMS5003;67164;51.202;0.278;2023-04-01T08:38:01;2;2;
77974;PMS5003;67164;51.202;0.278;2023-04-01T08:40:32;1;1;
77974;PMS5003;67164;51.202;0.278;2023-04-01T08:42:54;3;3;
77974;PMS5003;67164;51.202;0.278;2023-04-01T08:45:25;3;2;
77974;PMS5003;67164;51.202;0.278;2023-04-01T08:47:46;4;3;
77974;PMS5003;67164;51.202;0.278;2023-04-01T08:50:20;2;2;
77974;PMS5003;67164;51.202;0.278;2023-04-01T08:52:35;2;2;
77974;PMS5003;67164;51.202;0.278;2023-04-01T08:57:31;3;3;
77974;PMS5003;67164;51.202;0.278;2023-04-01T08:59:56;1;1;
77974;PMS5003;67164;51.202;0.278;2023-04-01T09:02:24;3;3;
77974;PMS5003;67164;51.202;0.278;2023-04-01T09:07:13;3;3;
77974;PMS5003;67164;51.202;0.278;2023-04-01T09:09:40;1;1;
77974;PMS5003;67164;51.202;0.278;2023-04-01T09:12:09;2;2;
77974;PMS5003;67164;51.202;0.278;2023-04-01T09:14:33;3;3;
77974;PMS5003;67164;51.202;0.278;2023-04-01T09:17:00;3;3;
77974;PMS5003;67164;51.202;0.278;2023-04-01T09:19:21;5;3;
77974;PMS5003;67164;51.202;0.278;2023-04-01T09:21:49;5;5;
77974;PMS5003;67164;51.202;0.278;2023-04-01T09:24:20;3;3;
77974;PMS5003;67164;51.202;0.278;2023-04-01T09:26:41;2;2;
77974;PMS5003;67164;51.202;0.278;2023-04-01T09:29:04;3;3;
77974;PMS5003;67164;51.202;0.278;2023-04-01T09:31:38;3;3;
77974;PMS5003;67164;51.202;0.278;2023-04-01T09:36:23;4;3;
77974;PMS5003;67164;51.202;0.278;2023-04-01T09:38:49;2;2;
77974;PMS5003;67164;51.202;0.278;2023-04-01T09:41:13;10;4;
77974;PMS5003;67164;51.202;0.278;2023-04-01T09:43:42;5;4;
77974;PMS5003;67164;51.202;0.278;2023-04-01T09:46:10;3;3;
77974;PMS5003;67164;51.202;0.278;2023-04-01T09:48:33;3;3;
77974;PMS5003;67164;51.202;0.278;2023-04-01T09:50:57;3;3;
77974;PMS5003;67164;51.202;0.278;2023-04-01T09:53:24;4;4;
77974;PMS5003;67164;51.202;0.278;2023-04-01T09:58:16;3;3;
77974;PMS5003;67164;51.202;0.278;2023-04-01T10:12:51;4;4;
77974;PMS5003;67164;51.202;0.278;2023-04-01T10:17:51;5;4;
77974;PMS5003;67164;51.202;0.278;2023-04-01T10:20:08;5;4;
77974;PMS5003;67164;51.202;0.278;2023-04-01T10:22:42;3;3;
77974;PMS5003;67164;51.202;0.278;2023-04-01T10:25:05;5;4;
77974;PMS5003;67164;51.202;0.278;2023-04-01T10:29:52;5;5;
77974;PMS5003;67164;51.202;0.278;2023-04-01T10:34:45;1;1;
77974;PMS5003;67164;51.202;0.278;2023-04-01T10:37:06;5;3;
77974;PMS5003;67164;51.202;0.278;2023-04-01T10:39:34;3;3;
77974;PMS5003;67164;51.202;0.278;2023-04-01T10:44:27;6;3;
77974;PMS5003;67164;51.202;0.278;2023-04-01T10:46:58;3;3;
77974;PMS5003;67164;51.202;0.278;2023-04-01T10:54:09;3;3;
77974;PMS5003;67164;51.202;0.278;2023-04-01T10:56:33;6;4;
77974;PMS5003;67164;51.202;0.278;2023-04-01T11:01:27;5;4;
77974;PMS5003;67164;51.202;0.278;2023-04-01T11:18:31;36;27;
77974;PMS5003;67164;51.202;0.278;2023-04-01T11:23:18;22;14;
77974;PMS5003;67164;51.202;0.278;2023-04-01T11:28:09;21;16;
77974;PMS5003;67164;51.202;0.278;2023-04-01T11:30:34;19;16;
77974;PMS5003;67164;51.202;0.278;2023-04-01T11:32:57;15;14;
77974;PMS5003;67164;51.202;0.278;2023-04-01T11:35:27;16;12;
77974;PMS5003;67164;51.202;0.278;2023-04-01T11:37:48;16;15;
77974;PMS5003;67164;51.202;0.278;2023-04-01T11:40:15;13;10;
77974;PMS5003;67164;51.202;0.278;2023-04-01T11:42:40;32;27;
77974;PMS5003;67164;51.202;0.278;2023-04-01T11:45:07;66;57;
77974;PMS5003;67164;51.202;0.278;2023-04-01T11:49:57;121;93;
77974;PMS5003;67164;51.202;0.278;2023-04-01T11:52:26;126;91;
77974;PMS5003;67164;51.202;0.278;2023-04-01T11:54:51;107;89;
77974;PMS5003;67164;51.202;0.278;2023-04-01T11:57:15;96;78;
77974;PMS5003;67164;51.202;0.278;2023-04-01T11:59:45;78;64;
77974;PMS5003;67164;51.202;0.278;2023-04-01T12:02:03;73;53;
77974;PMS5003;67164;51.202;0.278;2023-04-01T12:04:31;61;53;
77974;PMS5003;67164;51.202;0.278;2023-04-01T12:06:52;54;46;
77974;PMS5003;67164;51.202;0.278;2023-04-01T12:09:18;55;46;
77974;PMS5003;67164;51.202;0.278;2023-04-01T12:11:43;39;37;
77974;PMS5003;67164;51.202;0.278;2023-04-01T12:14:09;44;39;
77974;PMS5003;67164;51.202;0.278;2023-04-01T12:16:37;41;34;
77974;PMS5003;67164;51.202;0.278;2023-04-01T12:18:58;40;26;
77974;PMS5003;67164;51.202;0.278;2023-04-01T12:21:24;30;26;
77974;PMS5003;67164;51.202;0.278;2023-04-01T12:23:52;27;24;
77974;PMS5003;67164;51.202;0.278;2023-04-01T12:26:18;27;25;
77974;PMS5003;67164;51.202;0.278;2023-04-01T12:28:41;32;29;
77974;PMS5003;67164;51.202;0.278;2023-04-01T12:31:07;26;20;
77974;PMS5003;67164;51.202;0.278;2023-04-01T12:35:58;26;23;
77974;PMS5003;67164;51.202;0.278;2023-04-01T12:38:23;31;27;
77974;PMS5003;67164;51.202;0.278;2023-04-01T12:40:50;29;25;
77974;PMS5003;67164;51.202;0.278;2023-04-01T12:43:17;28;21;
77974;PMS5003;67164;51.202;0.278;2023-04-01T12:45:38;30;26;
77974;PMS5003;67164;51.202;0.278;2023-04-01T12:48:06;22;17;
77974;PMS5003;67164;51.202;0.278;2023-04-01T12:50:30;22;20;
77974;PMS5003;67164;51.202;0.278;2023-04-01T12:52:57;25;21;
77974;PMS5003;67164;51.202;0.278;2023-04-01T12:55:24;24;18;
77974;PMS5003;67164;51.202;0.278;2023-04-01T12:57:52;19;17;
77974;PMS5003;67164;51.202;0.278;2023-04-01T13:00:12;21;16;
77974;PMS5003;67164;51.202;0.278;2023-04-01T13:02:38;16;16;
77974;PMS5003;67164;51.202;0.278;2023-04-01T13:07:29;21;16;
77974;PMS5003;67164;51.202;0.278;2023-04-01T13:09:53;17;13;
77974;PMS5003;67164;51.202;0.278;2023-04-01T13:12:23;15;13;
77974;PMS5003;67164;51.202;0.278;2023-04-01T13:14:50;23;15;
77974;PMS5003;67164;51.202;0.278;2023-04-01T13:17:10;17;14;
77974;PMS5003;67164;51.202;0.278;2023-04-01T13:19:36;13;11;
77974;PMS5003;67164;51.202;0.278;2023-04-01T13:22:03;15;11;
77974;PMS5003;67164;51.202;0.278;2023-04-01T13:24:31;17;15;
77974;PMS5003;67164;51.202;0.278;2023-04-01T13:26:55;15;13;
77974;PMS5003;67164;51.202;0.278;2023-04-01T13:29:18;13;12;
77974;PMS5003;67164;51.202;0.278;2023-04-01T13:31:47;12;11;
77974;PMS5003;67164;51.202;0.278;2023-04-01T13:34:14;21;17;
77974;PMS5003;67164;51.202;0.278;2023-04-01T13:36:34;19;14;
77974;PMS5003;67164;51.202;0.278;2023-04-01T13:39:02;76;63;
77974;PMS5003;67164;51.202;0.278;2023-04-01T13:41:27;87;81;
77974;PMS5003;67164;51.202;0.278;2023-04-01T13:43:50;83;69;
77974;PMS5003;67164;51.202;0.278;2023-04-01T13:48:45;38;32;
77974;PMS5003;67164;51.202;0.278;2023-04-01T13:53:40;109;90;
77974;PMS5003;67164;51.202;0.278;2023-04-01T13:56:03;109;82;
77974;PMS5003;67164;51.202;0.278;2023-04-01T13:58:27;85;73;
77974;PMS5003;67164;51.202;0.278;2023-04-01T14:03:19;93;82;
77974;PMS5003;67164;51.202;0.278;2023-04-01T14:05:43;100;84;
77974;PMS5003;67164;51.202;0.278;2023-04-01T14:08:07;83;71;
77974;PMS5003;67164;51.202;0.278;2023-04-01T14:10:32;81;70;
77974;PMS5003;67164;51.202;0.278;2023-04-01T14:12:57;73;64;
77974;PMS5003;67164;51.202;0.278;2023-04-01T14:15:25;77;63;
77974;PMS5003;67164;51.202;0.278;2023-04-01T14:17:48;64;52;
77974;PMS5003;67164;51.202;0.278;2023-04-01T14:22:38;56;50;
77974;PMS5003;67164;51.202;0.278;2023-04-01T14:27:35;50;43;
77974;PMS5003;67164;51.202;0.278;2023-04-01T14:29:58;37;34;
77974;PMS5003;67164;51.202;0.278;2023-04-01T14:32:23;43;37;
77974;PMS5003;67164;51.202;0.278;2023-04-01T14:34:50;40;32;
77974;PMS5003;67164;51.202;0.278;2023-04-01T14:37:13;36;32;
77974;PMS5003;67164;51.202;0.278;2023-04-01T14:39:42;35;28;
77974;PMS5003;67164;51.202;0.278;2023-04-01T14:42:06;28;25;
77974;PMS5003;67164;51.202;0.278;2023-04-01T14:44:34;33;27;
77974;PMS5003;67164;51.202;0.278;2023-04-01T14:46:58;24;23;
77974;PMS5003;67164;51.202;0.278;2023-04-01T14:49:20;31;23;
77974;PMS5003;67164;51.202;0.278;2023-04-01T14:51:43;25;20;
77974;PMS5003;67164;51.202;0.278;2023-04-01T14:54:12;19;18;
77974;PMS5003;67164;51.202;0.278;2023-04-01T14:56:36;22;16;
77974;PMS5003;67164;51.202;0.278;2023-04-01T14:58:59;12;12;
77974;PMS5003;67164;51.202;0.278;2023-04-01T15:01:30;15;13;
77974;PMS5003;67164;51.202;0.278;2023-04-01T15:03:53;18;15;
77974;PMS5003;67164;51.202;0.278;2023-04-01T15:08:43;14;13;
77974;PMS5003;67164;51.202;0.278;2023-04-01T15:11:14;14;13;
77974;PMS5003;67164;51.202;0.278;2023-04-01T15:13:39;14;14;
77974;PMS5003;67164;51.202;0.278;2023-04-01T15:16:02;17;12;
77974;PMS5003;67164;51.202;0.278;2023-04-01T15:18:27;14;12;
77974;PMS5003;67164;51.202;0.278;2023-04-01T15:20:55;10;8;
77974;PMS5003;67164;51.202;0.278;2023-04-01T15:23:20;11;11;
77974;PMS5003;67164;51.202;0.278;2023-04-01T15:25:45;11;8;
77974;PMS5003;67164;51.202;0.278;2023-04-01T15:28:10;9;9;
77974;PMS5003;67164;51.202;0.278;2023-04-01T15:30:34;6;6;
77974;PMS5003;67164;51.202;0.278;2023-04-01T15:35:29;9;6;
77974;PMS5003;67164;51.202;0.278;2023-04-01T15:37:52;11;9;
77974;PMS5003;67164;51.202;0.278;2023-04-01T15:40:19;10;9;
77974;PMS5003;67164;51.202;0.278;2023-04-01T15:42:46;7;7;
77974;PMS5003;67164;51.202;0.278;2023-04-01T15:45:12;7;7;
77974;PMS5003;67164;51.202;0.278;2023-04-01T15:47:37;7;7;
77974;PMS5003;67164;51.202;0.278;2023-04-01T15:50:07;9;7;
77974;PMS5003;67164;51.202;0.278;2023-04-01T15:52:34;11;7;
77974;PMS5003;67164;51.202;0.278;2023-04-01T15:54:56;5;4;
77974;PMS5003;67164;51.202;0.278;2023-04-01T15:57:21;5;5;
77974;PMS5003;67164;51.202;0.278;2023-04-01T15:59:50;7;6;
77974;PMS5003;67164;51.202;0.278;2023-04-01T16:02:11;4;4;
77974;PMS5003;67164;51.202;0.278;2023-04-01T16:04:40;5;5;
77974;PMS5003;67164;51.202;0.278;2023-04-01T16:07:03;6;6;
77974;PMS5003;67164;51.202;0.278;2023-04-01T16:09:30;7;7;
77974;PMS5003;67164;51.202;0.278;2023-04-01T16:11:53;7;5;
77974;PMS5003;67164;51.202;0.278;2023-04-01T16:14:22;6;4;
77974;PMS5003;67164;51.202;0.278;2023-04-01T16:16:48;4;4;
77974;PMS5003;67164;51.202;0.278;2023-04-01T16:19:15;4;4;
77974;PMS5003;67164;51.202;0.278;2023-04-01T16:21:37;7;6;
77974;PMS5003;67164;51.202;0.278;2023-04-01T16:24:03;8;6;
77974;PMS5003;67164;51.202;0.278;2023-04-01T16:26:28;6;6;
77974;PMS5003;67164;51.202;0.278;2023-04-01T16:28:54;6;6;
77974;PMS5003;67164;51.202;0.278;2023-04-01T16:31:25;6;5;
77974;PMS5003;67164;51.202;0.278;2023-04-01T16:33:46;7;6;
77974;PMS5003;67164;51.202;0.278;2023-04-01T16:36:13;7;4;
77974;PMS5003;67164;51.202;0.278;2023-04-01T16:38:37;6;6;
77974;PMS5003;67164;51.202;0.278;2023-04-01T16:41:07;6;6;
77974;PMS5003;67164;51.202;0.278;2023-04-01T16:43:28;8;8;
77974;PMS5003;67164;51.202;0.278;2023-04-01T16:45:56;7;7;
77974;PMS5003;67164;51.202;0.278;2023-04-01T16:48:20;8;8;
77974;PMS5003;67164;51.202;0.278;2023-04-01T16:50:53;8;7;
77974;PMS5003;67164;51.202;0.278;2023-04-01T16:53:14;11;11;
77974;PMS5003;67164;51.202;0.278;2023-04-01T16:58:03;13;10;
77974;PMS5003;67164;51.202;0.278;2023-04-01T17:00:29;15;13;
77974;PMS5003;67164;51.202;0.278;2023-04-01T17:02:58;12;10;
77974;PMS5003;67164;51.202;0.278;2023-04-01T17:05:20;13;11;
77974;PMS5003;67164;51.202;0.278;2023-04-01T17:07:47;11;10;
77974;PMS5003;67164;51.202;0.278;2023-04-01T17:10:22;12;9;
77974;PMS5003;67164;51.202;0.278;2023-04-01T17:12:38;6;6;
77974;PMS5003;67164;51.202;0.278;2023-04-01T17:15:05;12;9;
77974;PMS5003;67164;51.202;0.278;2023-04-01T17:17:31;10;10;
77974;PMS5003;67164;51.202;0.278;2023-04-01T17:19:59;9;9;
77974;PMS5003;67164;51.202;0.278;2023-04-01T17:22:26;9;9;
77974;PMS5003;67164;51.202;0.278;2023-04-01T17:24:51;8;8;
77974;PMS5003;67164;51.202;0.278;2023-04-01T17:27:15;11;8;
77974;PMS5003;67164;51.202;0.278;2023-04-01T17:29:44;10;8;
77974;PMS5003;67164;51.202;0.278;2023-04-01T17:32:05;8;8;
77974;PMS5003;67164;51.202;0.278;2023-04-01T17:34:32;10;9;
77974;PMS5003;67164;51.202;0.278;2023-04-01T17:36:59;9;9;
77974;PMS5003;67164;51.202;0.278;2023-04-01T17:39:25;12;12;
77974;PMS5003;67164;51.202;0.278;2023-04-01T17:41:47;8;8;
77974;PMS5003;67164;51.202;0.278;2023-04-01T17:44:16;9;9;
77974;PMS5003;67164;51.202;0.278;2023-04-01T17:46:40;7;7;
77974;PMS5003;67164;51.202;0.278;2023-04-01T17:49:08;8;7;
77974;PMS5003;67164;51.202;0.278;2023-04-01T17:51:31;11;8;
77974;PMS5003;67164;51.202;0.278;2023-04-01T17:53:58;12;11;
77974;PMS5003;67164;51.202;0.278;2023-04-01T17:56:23;8;8;
77974;PMS5003;67164;51.202;0.278;2023-04-01T17:58:48;7;6;